Time,TemperatureF,DewpointF,PressureIn,WindDirection,WindDirectionDegrees,WindSpeedMPH,WindSpeedGustMPH,Humidity,HourlyPrecipIn,Conditions,Clouds,dailyrainin,SoftwareType,DateUTC
2013-03-25 15:05:00,43.8,25.4,29.57,ESE,123,4.0,4.0,48,0.00,,,0.00,Wunderground v.1.15,2013-03-25 19:05:00,
2013-03-25 15:10:00,43.9,25.5,29.57,East,101,3.0,4.0,48,0.00,,,0.00,Wunderground v.1.15,2013-03-25 19:10:00,
2013-03-25 15:15:00,43.9,25.5,29.57,ESE,119,3.0,5.0,48,0.00,,,0.00,Wunderground v.1.15,2013-03-25 19:15:00,
2013-03-25 15:20:00,44.0,25.5,29.57,SE,128,3.0,5.0,48,0.00,,,0.00,Wunderground v.1.15,2013-03-25 19:20:00,
2013-03-25 15:30:00,44.0,25.5,29.57,NW,321,2.0,2.0,48,0.00,,,0.00,Wunderground v.1.15,2013-03-25 19:30:00,
2013-03-25 15:40:00,43.6,25.2,29.57,NW,306,2.0,6.0,48,0.00,,,0.00,Wunderground v.1.15,2013-03-25 19:40:00,
2013-03-25 15:50:00,43.0,26.1,29.57,NNW,329,5.0,11.0,51,0.00,,,0.00,Wunderground v.1.15,2013-03-25 19:50:00,
2013-03-25 16:00:00,42.1,26.2,29.57,NW,311,8.0,9.0,53,0.00,,,0.00,Wunderground v.1.15,2013-03-25 20:00:00,
2013-03-25 16:05:00,42.0,26.5,29.57,North,350,7.0,12.0,54,0.00,,,0.00,Wunderground v.1.15,2013-03-25 20:05:00,
2013-03-25 16:15:00,42.0,26.5,29.57,NNW,338,6.0,12.0,54,0.00,,,0.00,Wunderground v.1.15,2013-03-25 20:15:00,
2013-03-25 16:25:00,42.2,26.3,29.57,NNW,331,5.0,13.0,53,0.00,,,0.00,Wunderground v.1.15,2013-03-25 20:25:00,
2013-03-25 16:30:00,42.3,26.4,29.57,NNW,335,6.0,12.0,53,0.00,,,0.00,Wunderground v.1.15,2013-03-25 20:30:00,
2013-03-25 16:40:00,42.2,26.7,29.57,NNW,333,6.0,12.0,54,0.00,,,0.00,Wunderground v.1.15,2013-03-25 20:40:00,
2013-03-25 16:50:00,42.1,26.2,29.58,NW,312,6.0,6.0,53,0.00,,,0.00,Wunderground v.1.15,2013-03-25 20:50:00,
2013-03-25 17:00:00,42.2,26.3,29.58,NW,323,5.0,5.0,53,0.00,,,0.00,Wunderground v.1.15,2013-03-25 21:00:00,
2013-03-25 17:05:00,42.2,26.3,29.58,NW,323,5.0,12.0,53,0.00,,,0.00,Wunderground v.1.15,2013-03-25 21:05:00,
2013-03-25 17:15:00,41.8,27.2,29.58,WNW,290,6.0,12.0,56,0.00,,,0.00,Wunderground v.1.15,2013-03-25 21:15:00,
2013-03-25 17:25:00,41.7,28.0,29.58,West,266,3.0,12.0,58,0.00,,,0.00,Wunderground v.1.15,2013-03-25 21:25:00,
2013-03-25 17:35:00,41.7,28.4,29.58,WNW,302,4.0,10.0,59,0.00,,,0.00,Wunderground v.1.15,2013-03-25 21:35:00,
2013-03-25 17:45:00,41.5,28.6,29.58,NW,309,5.0,12.0,60,0.00,,,0.00,Wunderground v.1.15,2013-03-25 21:45:00,
2013-03-25 17:55:00,41.6,28.7,29.59,WNW,298,3.0,6.0,60,0.00,,,0.00,Wunderground v.1.15,2013-03-25 21:55:00,
2013-03-25 18:00:00,41.6,29.1,29.59,WNW,295,3.0,4.0,61,0.00,,,0.00,Wunderground v.1.15,2013-03-25 22:00:00,
2013-03-25 18:10:00,41.5,29.0,29.59,NNW,344,4.0,4.0,61,0.00,,,0.00,Wunderground v.1.15,2013-03-25 22:10:00,
2013-03-25 18:20:00,41.3,28.9,29.60,NW,323,3.0,9.0,61,0.00,,,0.00,Wunderground v.1.15,2013-03-25 22:20:00,
2013-03-25 18:30:00,41.0,29.0,29.60,NNW,345,6.0,9.0,62,0.00,,,0.00,Wunderground v.1.15,2013-03-25 22:30:00,
2013-03-25 18:40:00,40.9,28.9,29.61,NW,320,5.0,12.0,62,0.00,,,0.00,Wunderground v.1.15,2013-03-25 22:40:00,
2013-03-25 18:45:00,40.9,28.9,29.61,NW,326,5.0,12.0,62,0.00,,,0.00,Wunderground v.1.15,2013-03-25 22:45:00,
2013-03-25 18:50:00,40.8,28.8,29.61,NNW,338,5.0,12.0,62,0.00,,,0.00,Wunderground v.1.15,2013-03-25 22:50:00,
2013-03-25 19:00:00,40.7,29.1,29.61,NW,320,4.0,4.0,63,0.00,,,0.00,Wunderground v.1.15,2013-03-25 23:00:00,
2013-03-25 19:05:00,40.6,29.0,29.61,NNW,342,4.0,12.0,63,0.00,,,0.00,Wunderground v.1.15,2013-03-25 23:05:00,
2013-03-25 19:10:00,40.5,29.3,29.61,NNW,343,3.0,12.0,64,0.00,,,0.00,Wunderground v.1.15,2013-03-25 23:10:00,
2013-03-25 19:20:00,40.4,29.2,29.62,NW,324,3.0,3.0,64,0.00,,,0.00,Wunderground v.1.15,2013-03-25 23:20:00,
2013-03-25 19:25:00,40.4,29.2,29.62,NW,306,5.0,5.0,64,0.00,,,0.00,Wunderground v.1.15,2013-03-25 23:25:00,
2013-03-25 19:35:00,40.2,29.0,29.62,NW,324,4.0,12.0,64,0.00,,,0.00,Wunderground v.1.15,2013-03-25 23:35:00,
2013-03-25 19:40:00,40.2,29.4,29.62,NNW,332,3.0,12.0,65,0.00,,,0.00,Wunderground v.1.15,2013-03-25 23:40:00,
2013-03-25 19:50:00,40.0,28.8,29.63,NNE,17,3.0,3.0,64,0.00,,,0.00,Wunderground v.1.15,2013-03-25 23:50:00,
2013-03-25 20:00:00,39.8,28.6,29.63,NNW,332,4.0,12.0,64,0.00,,,0.00,Wunderground v.1.15,2013-03-26 00:00:00,
2013-03-25 20:05:00,39.8,28.6,29.63,NNW,329,4.0,12.0,64,0.00,,,0.00,Wunderground v.1.15,2013-03-26 00:05:00,
2013-03-25 20:15:00,39.6,28.4,29.64,NNW,330,4.0,12.0,64,0.00,,,0.00,Wunderground v.1.15,2013-03-26 00:15:00,
2013-03-25 20:25:00,39.5,28.7,29.64,North,10,3.0,12.0,65,0.00,,,0.00,Wunderground v.1.15,2013-03-26 00:25:00,
2013-03-25 20:35:00,39.4,28.6,29.64,NNE,18,2.0,12.0,65,0.00,,,0.00,Wunderground v.1.15,2013-03-26 00:35:00,
2013-03-25 20:40:00,39.4,28.6,29.64,NNW,340,2.0,12.0,65,0.00,,,0.00,Wunderground v.1.15,2013-03-26 00:40:00,
2013-03-25 20:50:00,39.3,28.5,29.65,NW,326,2.0,12.0,65,0.00,,,0.00,Wunderground v.1.15,2013-03-26 00:50:00,
2013-03-25 21:00:00,39.2,28.4,29.65,NNW,329,2.0,4.0,65,0.00,,,0.00,Wunderground v.1.15,2013-03-26 01:00:00,
2013-03-25 21:10:00,39.1,28.3,29.65,NW,319,2.0,2.0,65,0.00,,,0.00,Wunderground v.1.15,2013-03-26 01:10:00,
2013-03-25 21:20:00,39.1,28.3,29.65,NNW,342,2.0,4.0,65,0.00,,,0.00,Wunderground v.1.15,2013-03-26 01:20:00,
2013-03-25 21:30:00,38.9,28.1,29.65,NW,326,2.0,2.0,65,0.00,,,0.00,Wunderground v.1.15,2013-03-26 01:30:00,
2013-03-25 21:40:00,38.8,28.0,29.66,NNW,329,1.0,12.0,65,0.00,,,0.00,Wunderground v.1.15,2013-03-26 01:40:00,
2013-03-25 21:45:00,38.8,28.4,29.65,NNW,327,2.0,12.0,66,0.00,,,0.00,Wunderground v.1.15,2013-03-26 01:45:00,
2013-03-25 21:55:00,38.7,28.3,29.66,NNW,342,2.0,12.0,66,0.00,,,0.00,Wunderground v.1.15,2013-03-26 01:55:00,
2013-03-25 22:05:00,38.6,28.2,29.66,NNW,330,1.0,12.0,66,0.00,,,0.00,Wunderground v.1.15,2013-03-26 02:05:00,
2013-03-25 22:15:00,38.5,28.1,29.66,NNW,327,1.0,12.0,66,0.00,,,0.00,Wunderground v.1.15,2013-03-26 02:15:00,
2013-03-25 22:20:00,38.4,28.4,29.66,NW,324,1.0,12.0,67,0.00,,,0.00,Wunderground v.1.15,2013-03-26 02:20:00,
2013-03-25 22:30:00,38.4,28.0,29.66,NNW,327,0.0,12.0,66,0.00,,,0.00,Wunderground v.1.15,2013-03-26 02:30:00,
2013-03-25 22:40:00,38.3,28.3,29.66,NW,315,0.0,12.0,67,0.00,,,0.00,Wunderground v.1.15,2013-03-26 02:40:00,
2013-03-25 22:45:00,38.2,28.2,29.66,NW,315,0.0,12.0,67,0.00,,,0.00,Wunderground v.1.15,2013-03-26 02:45:00,
2013-03-25 22:50:00,38.2,28.2,29.67,NW,315,0.0,12.0,67,0.00,,,0.00,Wunderground v.1.15,2013-03-26 02:50:00,
2013-03-25 23:00:00,38.1,28.8,29.67,NW,315,0.0,12.0,69,0.00,,,0.00,Wunderground v.1.15,2013-03-26 03:00:00,
2013-03-25 23:05:00,38.0,28.7,29.66,NW,315,0.0,12.0,69,0.00,,,0.00,Wunderground v.1.15,2013-03-26 03:05:00,
2013-03-25 23:15:00,37.8,28.5,29.66,NW,315,0.0,12.0,69,0.00,,,0.00,Wunderground v.1.15,2013-03-26 03:15:00,
2013-03-25 23:25:00,37.7,28.4,29.66,NW,315,0.0,12.0,69,0.00,,,0.00,Wunderground v.1.15,2013-03-26 03:25:00,
2013-03-25 23:30:00,37.7,28.4,29.66,NW,315,0.0,12.0,69,0.00,,,0.00,Wunderground v.1.15,2013-03-26 03:30:00,
2013-03-25 23:40:00,37.7,28.4,29.67,NW,315,0.0,12.0,69,0.00,,,0.00,Wunderground v.1.15,2013-03-26 03:40:00,
2013-03-25 23:45:00,37.6,28.3,29.67,NW,315,0.0,12.0,69,0.00,,,0.00,Wunderground v.1.15,2013-03-26 03:45:00,
2013-03-25 23:55:00,37.5,28.6,29.67,NW,315,0.0,12.0,70,0.00,,,0.00,Wunderground v.1.15,2013-03-26 03:55:00,